sensor_id;sensor_type;location;lat;lon;timestamp;P1;durP1;ratioP1;P2;durP2;ratioP2
34805;SDS011;65084;42.196;25.326;2023-07-13T00:00:47;15.20;;;9.40;;
34805;SDS011;65084;42.196;25.326;2023-07-13T00:03:15;13.07;;;8.52;;
34805;SDS011;65084;42.196;25.326;2023-07-13T00:05:44;12.40;;;8.05;;
34805;SDS011;65084;42.196;25.326;2023-07-13T00:08:11;13.70;;;8.13;;
34805;SDS011;65084;42.196;25.326;2023-07-13T00:10:40;12.65;;;8.45;;
34805;SDS011;65084;42.196;25.326;2023-07-13T00:13:08;12.10;;;7.97;;
34805;SDS011;65084;42.196;25.326;2023-07-13T00:15:35;12.93;;;8.27;;
34805;SDS011;65084;42.196;25.326;2023-07-13T00:18:03;17.23;;;8.50;;
34805;SDS011;65084;42.196;25.326;2023-07-13T00:20:30;10.13;;;7.80;;
34805;SDS011;65084;42.196;25.326;2023-07-13T00:22:58;9.20;;;8.23;;
34805;SDS011;65084;42.196;25.326;2023-07-13T00:25:25;12.13;;;8.45;;
34805;SDS011;65084;42.196;25.326;2023-07-13T00:27:55;12.20;;;8.88;;
34805;SDS011;65084;42.196;25.326;2023-07-13T00:30:22;11.68;;;8.15;;
34805;SDS011;65084;42.196;25.326;2023-07-13T00:32:51;15.75;;;9.05;;
34805;SDS011;65084;42.196;25.326;2023-07-13T00:35:18;14.18;;;8.45;;
34805;SDS011;65084;42.196;25.326;2023-07-13T00:37:45;15.07;;;8.60;;
34805;SDS011;65084;42.196;25.326;2023-07-13T00:40:13;11.90;;;9.15;;
34805;SDS011;65084;42.196;25.326;2023-07-13T00:42:40;19.95;;;8.40;;
34805;SDS011;65084;42.196;25.326;2023-07-13T00:47:51;13.05;;;8.20;;
34805;SDS011;65084;42.196;25.326;2023-07-13T00:50:19;15.15;;;8.95;;
34805;SDS011;65084;42.196;25.326;2023-07-13T00:52:49;12.57;;;8.75;;
34805;SDS011;65084;42.196;25.326;2023-07-13T00:55:18;13.05;;;9.27;;
34805;SDS011;65084;42.196;25.326;2023-07-13T00:57:46;16.20;;;8.18;;
34805;SDS011;65084;42.196;25.326;2023-07-13T01:00:13;9.98;;;8.65;;
34805;SDS011;65084;42.196;25.326;2023-07-13T01:02:42;10.70;;;9.13;;
34805;SDS011;65084;42.196;25.326;2023-07-13T01:05:13;9.93;;;8.75;;
34805;SDS011;65084;42.196;25.326;2023-07-13T01:07:41;10.88;;;8.85;;
34805;SDS011;65084;42.196;25.326;2023-07-13T01:10:10;9.70;;;8.60;;
34805;SDS011;65084;42.196;25.326;2023-07-13T01:12:37;10.75;;;8.50;;
34805;SDS011;65084;42.196;25.326;2023-07-13T01:15:32;17.98;;;8.70;;
34805;SDS011;65084;42.196;25.326;2023-07-13T01:17:53;9.18;;;8.32;;
34805;SDS011;65084;42.196;25.326;2023-07-13T01:20:22;12.98;;;9.15;;
34805;SDS011;65084;42.196;25.326;2023-07-13T01:22:51;11.07;;;8.95;;
34805;SDS011;65084;42.196;25.326;2023-07-13T01:25:19;12.55;;;8.77;;
34805;SDS011;65084;42.196;25.326;2023-07-13T01:27:46;9.20;;;8.32;;
34805;SDS011;65084;42.196;25.326;2023-07-13T01:30:13;10.00;;;8.90;;
34805;SDS011;65084;42.196;25.326;2023-07-13T01:32:41;14.35;;;9.35;;
34805;SDS011;65084;42.196;25.326;2023-07-13T01:35:08;9.80;;;8.90;;
34805;SDS011;65084;42.196;25.326;2023-07-13T01:37:37;9.32;;;8.35;;
34805;SDS011;65084;42.196;25.326;2023-07-13T01:40:07;16.05;;;8.88;;
34805;SDS011;65084;42.196;25.326;2023-07-13T01:42:34;9.52;;;8.52;;
34805;SDS011;65084;42.196;25.326;2023-07-13T01:45:02;12.27;;;9.20;;
34805;SDS011;65084;42.196;25.326;2023-07-13T01:47:29;19.85;;;9.07;;
34805;SDS011;65084;42.196;25.326;2023-07-13T01:49:56;12.57;;;8.88;;
34805;SDS011;65084;42.196;25.326;2023-07-13T01:52:24;11.55;;;9.57;;
34805;SDS011;65084;42.196;25.326;2023-07-13T01:54:51;11.43;;;8.48;;
34805;SDS011;65084;42.196;25.326;2023-07-13T01:57:20;12.32;;;8.80;;
34805;SDS011;65084;42.196;25.326;2023-07-13T01:59:47;16.50;;;9.40;;
34805;SDS011;65084;42.196;25.326;2023-07-13T02:02:14;15.40;;;9.27;;
34805;SDS011;65084;42.196;25.326;2023-07-13T02:04:42;11.55;;;9.07;;
34805;SDS011;65084;42.196;25.326;2023-07-13T02:07:09;15.57;;;9.68;;
34805;SDS011;65084;42.196;25.326;2023-07-13T02:09:36;11.82;;;9.32;;
34805;SDS011;65084;42.196;25.326;2023-07-13T02:12:04;11.07;;;9.18;;
34805;SDS011;65084;42.196;25.326;2023-07-13T02:14:33;14.45;;;9.65;;
34805;SDS011;65084;42.196;25.326;2023-07-13T02:16:59;17.13;;;9.85;;
34805;SDS011;65084;42.196;25.326;2023-07-13T02:19:26;11.15;;;10.07;;
34805;SDS011;65084;42.196;25.326;2023-07-13T02:21:54;13.27;;;9.82;;
34805;SDS011;65084;42.196;25.326;2023-07-13T02:24:21;17.98;;;10.13;;
34805;SDS011;65084;42.196;25.326;2023-07-13T02:26:48;14.05;;;10.63;;
34805;SDS011;65084;42.196;25.326;2023-07-13T02:29:15;13.77;;;9.80;;
34805;SDS011;65084;42.196;25.326;2023-07-13T02:31:44;16.95;;;10.32;;
34805;SDS011;65084;42.196;25.326;2023-07-13T02:34:11;11.55;;;9.93;;
34805;SDS011;65084;42.196;25.326;2023-07-13T02:36:39;16.67;;;10.90;;
34805;SDS011;65084;42.196;25.326;2023-07-13T02:39:06;15.07;;;10.75;;
34805;SDS011;65084;42.196;25.326;2023-07-13T02:41:34;14.50;;;10.55;;
34805;SDS011;65084;42.196;25.326;2023-07-13T02:44:02;12.23;;;10.90;;
34805;SDS011;65084;42.196;25.326;2023-07-13T02:46:29;17.50;;;11.77;;
34805;SDS011;65084;42.196;25.326;2023-07-13T02:48:58;15.55;;;11.02;;
34805;SDS011;65084;42.196;25.326;2023-07-13T02:51:25;14.65;;;11.30;;
34805;SDS011;65084;42.196;25.326;2023-07-13T02:53:53;33.90;;;12.52;;
34805;SDS011;65084;42.196;25.326;2023-07-13T02:56:22;14.43;;;11.25;;
34805;SDS011;65084;42.196;25.326;2023-07-13T02:58:49;19.02;;;12.32;;
34805;SDS011;65084;42.196;25.326;2023-07-13T03:01:17;19.63;;;11.60;;
34805;SDS011;65084;42.196;25.326;2023-07-13T03:03:46;21.63;;;12.60;;
34805;SDS011;65084;42.196;25.326;2023-07-13T03:06:14;23.73;;;12.70;;
34805;SDS011;65084;42.196;25.326;2023-07-13T03:08:42;32.63;;;12.15;;
34805;SDS011;65084;42.196;25.326;2023-07-13T03:11:10;15.63;;;12.95;;
34805;SDS011;65084;42.196;25.326;2023-07-13T03:13:38;16.23;;;12.98;;
34805;SDS011;65084;42.196;25.326;2023-07-13T03:16:05;18.58;;;12.13;;
34805;SDS011;65084;42.196;25.326;2023-07-13T03:18:33;13.93;;;12.00;;
34805;SDS011;65084;42.196;25.326;2023-07-13T03:21:01;16.20;;;12.15;;
34805;SDS011;65084;42.196;25.326;2023-07-13T03:23:29;15.90;;;12.50;;
34805;SDS011;65084;42.196;25.326;2023-07-13T03:26:04;14.68;;;12.45;;
34805;SDS011;65084;42.196;25.326;2023-07-13T03:28:31;19.17;;;12.55;;
34805;SDS011;65084;42.196;25.326;2023-07-13T03:30:59;21.50;;;12.35;;
34805;SDS011;65084;42.196;25.326;2023-07-13T03:33:27;27.98;;;12.95;;
34805;SDS011;65084;42.196;25.326;2023-07-13T03:35:54;16.70;;;12.15;;
34805;SDS011;65084;42.196;25.326;2023-07-13T03:38:21;18.05;;;12.98;;
34805;SDS011;65084;42.196;25.326;2023-07-13T03:40:50;17.67;;;12.45;;
34805;SDS011;65084;42.196;25.326;2023-07-13T03:43:17;22.42;;;14.00;;
34805;SDS011;65084;42.196;25.326;2023-07-13T03:45:45;18.02;;;12.02;;
34805;SDS011;65084;42.196;25.326;2023-07-13T03:48:13;23.15;;;12.93;;
34805;SDS011;65084;42.196;25.326;2023-07-13T03:50:40;22.50;;;12.73;;
34805;SDS011;65084;42.196;25.326;2023-07-13T03:53:08;25.52;;;13.00;;
34805;SDS011;65084;42.196;25.326;2023-07-13T03:55:35;25.50;;;13.18;;
34805;SDS011;65084;42.196;25.326;2023-07-13T04:00:46;25.15;;;12.85;;
34805;SDS011;65084;42.196;25.326;2023-07-13T04:03:13;17.63;;;12.93;;
34805;SDS011;65084;42.196;25.326;2023-07-13T04:05:41;23.13;;;13.40;;
34805;SDS011;65084;42.196;25.326;2023-07-13T04:08:09;23.55;;;13.13;;
34805;SDS011;65084;42.196;25.326;2023-07-13T04:10:36;22.73;;;14.40;;
34805;SDS011;65084;42.196;25.326;2023-07-13T04:13:03;22.92;;;13.35;;
34805;SDS011;65084;42.196;25.326;2023-07-13T04:15:31;23.70;;;14.10;;
34805;SDS011;65084;42.196;25.326;2023-07-13T04:18:00;28.60;;;14.30;;
34805;SDS011;65084;42.196;25.326;2023-07-13T04:20:28;25.95;;;13.95;;
34805;SDS011;65084;42.196;25.326;2023-07-13T04:22:56;35.33;;;14.25;;
34805;SDS011;65084;42.196;25.326;2023-07-13T04:25:23;27.17;;;13.45;;
34805;SDS011;65084;42.196;25.326;2023-07-13T04:27:51;19.88;;;13.35;;
34805;SDS011;65084;42.196;25.326;2023-07-13T04:30:18;31.67;;;14.25;;
34805;SDS011;65084;42.196;25.326;2023-07-13T04:32:45;26.73;;;15.23;;
34805;SDS011;65084;42.196;25.326;2023-07-13T04:35:14;20.83;;;14.10;;
34805;SDS011;65084;42.196;25.326;2023-07-13T04:37:41;29.50;;;15.07;;
34805;SDS011;65084;42.196;25.326;2023-07-13T04:40:09;21.13;;;14.55;;
34805;SDS011;65084;42.196;25.326;2023-07-13T04:42:37;18.25;;;14.40;;
34805;SDS011;65084;42.196;25.326;2023-07-13T04:45:05;23.40;;;15.20;;
34805;SDS011;65084;42.196;25.326;2023-07-13T04:47:32;22.25;;;15.88;;
34805;SDS011;65084;42.196;25.326;2023-07-13T04:50:00;27.50;;;14.93;;
34805;SDS011;65084;42.196;25.326;2023-07-13T04:52:28;26.20;;;15.15;;
34805;SDS011;65084;42.196;25.326;2023-07-13T04:54:57;16.45;;;14.32;;
34805;SDS011;65084;42.196;25.326;2023-07-13T04:57:24;32.03;;;13.90;;
34805;SDS011;65084;42.196;25.326;2023-07-13T04:59:51;21.50;;;13.38;;
34805;SDS011;65084;42.196;25.326;2023-07-13T05:02:20;19.58;;;14.50;;
34805;SDS011;65084;42.196;25.326;2023-07-13T05:04:47;24.83;;;13.52;;
34805;SDS011;65084;42.196;25.326;2023-07-13T05:07:15;16.08;;;13.50;;
34805;SDS011;65084;42.196;25.326;2023-07-13T05:09:43;20.02;;;13.88;;
34805;SDS011;65084;42.196;25.326;2023-07-13T05:12:11;19.30;;;14.77;;
34805;SDS011;65084;42.196;25.326;2023-07-13T05:14:38;16.38;;;13.70;;
34805;SDS011;65084;42.196;25.326;2023-07-13T05:17:05;15.98;;;13.20;;
34805;SDS011;65084;42.196;25.326;2023-07-13T05:19:32;16.95;;;13.32;;
34805;SDS011;65084;42.196;25.326;2023-07-13T05:22:00;22.15;;;14.13;;
34805;SDS011;65084;42.196;25.326;2023-07-13T05:24:27;16.85;;;13.85;;
34805;SDS011;65084;42.196;25.326;2023-07-13T05:26:56;33.78;;;14.57;;
34805;SDS011;65084;42.196;25.326;2023-07-13T05:29:24;19.38;;;14.43;;
34805;SDS011;65084;42.196;25.326;2023-07-13T05:31:51;22.40;;;14.60;;
34805;SDS011;65084;42.196;25.326;2023-07-13T05:34:18;23.88;;;13.77;;
34805;SDS011;65084;42.196;25.326;2023-07-13T05:36:46;20.88;;;12.90;;
34805;SDS011;65084;42.196;25.326;2023-07-13T05:39:13;20.52;;;13.05;;
34805;SDS011;65084;42.196;25.326;2023-07-13T05:41:40;20.73;;;13.63;;
34805;SDS011;65084;42.196;25.326;2023-07-13T05:44:09;23.38;;;12.60;;
34805;SDS011;65084;42.196;25.326;2023-07-13T05:46:36;19.85;;;12.02;;
34805;SDS011;65084;42.196;25.326;2023-07-13T05:49:03;15.68;;;12.77;;
34805;SDS011;65084;42.196;25.326;2023-07-13T05:51:31;14.65;;;11.43;;
34805;SDS011;65084;42.196;25.326;2023-07-13T05:53:58;24.55;;;12.52;;
34805;SDS011;65084;42.196;25.326;2023-07-13T05:56:25;20.80;;;12.27;;
34805;SDS011;65084;42.196;25.326;2023-07-13T05:58:52;16.70;;;12.60;;
34805;SDS011;65084;42.196;25.326;2023-07-13T06:01:21;17.73;;;13.57;;
34805;SDS011;65084;42.196;25.326;2023-07-13T06:03:48;14.27;;;12.18;;
34805;SDS011;65084;42.196;25.326;2023-07-13T06:06:16;15.50;;;13.05;;
34805;SDS011;65084;42.196;25.326;2023-07-13T06:08:43;16.23;;;12.98;;
34805;SDS011;65084;42.196;25.326;2023-07-13T06:11:12;19.92;;;12.52;;
34805;SDS011;65084;42.196;25.326;2023-07-13T06:13:40;20.95;;;13.02;;
34805;SDS011;65084;42.196;25.326;2023-07-13T06:16:07;22.25;;;13.40;;
34805;SDS011;65084;42.196;25.326;2023-07-13T06:18:36;16.73;;;13.43;;
34805;SDS011;65084;42.196;25.326;2023-07-13T06:21:07;18.08;;;12.65;;
34805;SDS011;65084;42.196;25.326;2023-07-13T06:23:35;18.60;;;13.43;;
34805;SDS011;65084;42.196;25.326;2023-07-13T06:26:02;25.58;;;12.95;;
34805;SDS011;65084;42.196;25.326;2023-07-13T06:28:30;18.58;;;12.77;;
34805;SDS011;65084;42.196;25.326;2023-07-13T06:30:57;21.95;;;12.65;;
34805;SDS011;65084;42.196;25.326;2023-07-13T06:33:25;16.98;;;12.65;;
34805;SDS011;65084;42.196;25.326;2023-07-13T06:35:54;17.92;;;12.73;;
34805;SDS011;65084;42.196;25.326;2023-07-13T06:38:21;19.25;;;13.80;;
34805;SDS011;65084;42.196;25.326;2023-07-13T06:40:48;20.13;;;13.25;;
34805;SDS011;65084;42.196;25.326;2023-07-13T06:43:16;14.25;;;12.85;;
34805;SDS011;65084;42.196;25.326;2023-07-13T06:45:43;16.55;;;13.63;;
34805;SDS011;65084;42.196;25.326;2023-07-13T06:48:12;20.55;;;12.45;;
34805;SDS011;65084;42.196;25.326;2023-07-13T06:50:40;28.75;;;13.82;;
34805;SDS011;65084;42.196;25.326;2023-07-13T06:53:09;18.67;;;13.25;;
34805;SDS011;65084;42.196;25.326;2023-07-13T06:55:36;19.20;;;14.30;;
34805;SDS011;65084;42.196;25.326;2023-07-13T06:58:04;17.70;;;13.40;;
34805;SDS011;65084;42.196;25.326;2023-07-13T07:00:31;18.85;;;13.40;;
34805;SDS011;65084;42.196;25.326;2023-07-13T07:02:58;23.50;;;13.77;;
34805;SDS011;65084;42.196;25.326;2023-07-13T07:05:26;19.13;;;13.65;;
34805;SDS011;65084;42.196;25.326;2023-07-13T07:07:54;23.20;;;13.20;;
34805;SDS011;65084;42.196;25.326;2023-07-13T07:10:23;18.45;;;14.48;;
34805;SDS011;65084;42.196;25.326;2023-07-13T07:12:50;18.33;;;14.18;;
34805;SDS011;65084;42.196;25.326;2023-07-13T07:15:17;18.27;;;13.75;;
34805;SDS011;65084;42.196;25.326;2023-07-13T07:17:45;18.52;;;13.73;;
34805;SDS011;65084;42.196;25.326;2023-07-13T07:20:12;17.35;;;13.90;;
34805;SDS011;65084;42.196;25.326;2023-07-13T07:22:39;20.40;;;12.77;;
34805;SDS011;65084;42.196;25.326;2023-07-13T07:25:07;14.82;;;13.18;;
34805;SDS011;65084;42.196;25.326;2023-07-13T07:27:35;25.20;;;12.82;;
34805;SDS011;65084;42.196;25.326;2023-07-13T07:30:03;16.92;;;12.23;;
34805;SDS011;65084;42.196;25.326;2023-07-13T07:32:30;16.58;;;13.60;;
34805;SDS011;65084;42.196;25.326;2023-07-13T07:34:58;26.20;;;12.93;;
34805;SDS011;65084;42.196;25.326;2023-07-13T07:37:25;20.05;;;11.93;;
34805;SDS011;65084;42.196;25.326;2023-07-13T07:39:52;19.45;;;13.25;;
34805;SDS011;65084;42.196;25.326;2023-07-13T07:42:20;18.25;;;12.38;;
34805;SDS011;65084;42.196;25.326;2023-07-13T07:44:48;24.15;;;12.63;;
34805;SDS011;65084;42.196;25.326;2023-07-13T07:47:16;16.35;;;13.40;;
34805;SDS011;65084;42.196;25.326;2023-07-13T07:49:43;20.27;;;13.30;;
34805;SDS011;65084;42.196;25.326;2023-07-13T07:52:10;16.02;;;12.40;;
34805;SDS011;65084;42.196;25.326;2023-07-13T07:54:37;18.80;;;13.25;;
34805;SDS011;65084;42.196;25.326;2023-07-13T07:57:05;16.77;;;12.60;;
34805;SDS011;65084;42.196;25.326;2023-07-13T07:59:33;23.13;;;12.90;;
34805;SDS011;65084;42.196;25.326;2023-07-13T08:02:02;19.80;;;12.40;;
34805;SDS011;65084;42.196;25.326;2023-07-13T08:04:29;26.45;;;12.93;;
34805;SDS011;65084;42.196;25.326;2023-07-13T08:06:56;15.88;;;12.23;;
34805;SDS011;65084;42.196;25.326;2023-07-13T08:09:23;21.20;;;11.10;;
34805;SDS011;65084;42.196;25.326;2023-07-13T08:11:51;13.82;;;12.18;;
34805;SDS011;65084;42.196;25.326;2023-07-13T08:14:19;22.38;;;11.13;;
34805;SDS011;65084;42.196;25.326;2023-07-13T08:16:47;16.88;;;11.50;;
34805;SDS011;65084;42.196;25.326;2023-07-13T08:19:15;14.25;;;11.63;;
34805;SDS011;65084;42.196;25.326;2023-07-13T08:21:43;21.95;;;12.05;;
34805;SDS011;65084;42.196;25.326;2023-07-13T08:24:13;17.38;;;11.43;;
34805;SDS011;65084;42.196;25.326;2023-07-13T08:26:40;16.98;;;11.77;;
34805;SDS011;65084;42.196;25.326;2023-07-13T08:29:08;15.20;;;12.13;;
34805;SDS011;65084;42.196;25.326;2023-07-13T08:31:35;15.27;;;12.27;;
34805;SDS011;65084;42.196;25.326;2023-07-13T08:34:02;13.57;;;11.88;;
34805;SDS011;65084;42.196;25.326;2023-07-13T08:36:31;21.15;;;12.10;;
34805;SDS011;65084;42.196;25.326;2023-07-13T08:38:58;18.15;;;10.93;;
34805;SDS011;65084;42.196;25.326;2023-07-13T08:41:25;15.95;;;11.70;;
34805;SDS011;65084;42.196;25.326;2023-07-13T08:43:55;14.57;;;11.52;;
34805;SDS011;65084;42.196;25.326;2023-07-13T08:46:24;23.25;;;12.18;;
34805;SDS011;65084;42.196;25.326;2023-07-13T08:48:53;15.90;;;11.43;;
34805;SDS011;65084;42.196;25.326;2023-07-13T08:51:24;12.82;;;11.55;;
34805;SDS011;65084;42.196;25.326;2023-07-13T08:53:56;14.70;;;11.38;;
34805;SDS011;65084;42.196;25.326;2023-07-13T08:56:24;12.77;;;11.45;;
34805;SDS011;65084;42.196;25.326;2023-07-13T08:58:53;21.42;;;11.85;;
34805;SDS011;65084;42.196;25.326;2023-07-13T09:01:23;22.45;;;12.02;;
34805;SDS011;65084;42.196;25.326;2023-07-13T09:03:53;21.25;;;12.27;;
34805;SDS011;65084;42.196;25.326;2023-07-13T09:06:30;22.13;;;12.43;;
34805;SDS011;65084;42.196;25.326;2023-07-13T09:09:01;12.52;;;10.70;;
34805;SDS011;65084;42.196;25.326;2023-07-13T09:11:38;17.48;;;11.43;;
34805;SDS011;65084;42.196;25.326;2023-07-13T09:19:20;18.10;;;10.30;;
34805;SDS011;65084;42.196;25.326;2023-07-13T09:21:48;15.02;;;9.73;;
34805;SDS011;65084;42.196;25.326;2023-07-13T09:24:26;13.60;;;9.73;;
34805;SDS011;65084;42.196;25.326;2023-07-13T09:26:55;13.63;;;9.77;;
34805;SDS011;65084;42.196;25.326;2023-07-13T09:29:24;11.40;;;10.20;;
34805;SDS011;65084;42.196;25.326;2023-07-13T09:31:54;11.55;;;10.18;;
34805;SDS011;65084;42.196;25.326;2023-07-13T09:34:23;15.25;;;10.15;;
34805;SDS011;65084;42.196;25.326;2023-07-13T09:36:51;16.83;;;9.90;;
34805;SDS011;65084;42.196;25.326;2023-07-13T09:39:20;17.52;;;9.55;;
34805;SDS011;65084;42.196;25.326;2023-07-13T09:41:51;14.80;;;9.38;;
34805;SDS011;65084;42.196;25.326;2023-07-13T09:44:27;16.73;;;9.90;;
34805;SDS011;65084;42.196;25.326;2023-07-13T09:46:56;11.40;;;9.45;;
34805;SDS011;65084;42.196;25.326;2023-07-13T09:49:24;19.17;;;9.50;;
34805;SDS011;65084;42.196;25.326;2023-07-13T09:51:57;21.00;;;9.00;;
34805;SDS011;65084;42.196;25.326;2023-07-13T09:54:25;10.43;;;9.43;;
34805;SDS011;65084;42.196;25.326;2023-07-13T09:56:57;15.13;;;9.23;;
34805;SDS011;65084;42.196;25.326;2023-07-13T09:59:27;10.57;;;9.50;;
34805;SDS011;65084;42.196;25.326;2023-07-13T10:01:55;15.18;;;9.18;;
34805;SDS011;65084;42.196;25.326;2023-07-13T10:04:27;10.60;;;8.98;;
34805;SDS011;65084;42.196;25.326;2023-07-13T10:07:04;11.00;;;8.85;;
34805;SDS011;65084;42.196;25.326;2023-07-13T10:09:31;14.35;;;9.27;;
34805;SDS011;65084;42.196;25.326;2023-07-13T10:12:00;16.83;;;9.52;;
34805;SDS011;65084;42.196;25.326;2023-07-13T10:14:27;12.18;;;9.57;;
34805;SDS011;65084;42.196;25.326;2023-07-13T10:16:58;14.93;;;10.13;;
34805;SDS011;65084;42.196;25.326;2023-07-13T10:19:27;28.52;;;16.98;;
34805;SDS011;65084;42.196;25.326;2023-07-13T10:21:57;14.68;;;9.57;;
34805;SDS011;65084;42.196;25.326;2023-07-13T10:24:26;17.17;;;11.23;;
34805;SDS011;65084;42.196;25.326;2023-07-13T10:26:56;23.15;;;8.48;;
34805;SDS011;65084;42.196;25.326;2023-07-13T10:29:27;13.25;;;8.50;;
34805;SDS011;65084;42.196;25.326;2023-07-13T10:31:55;10.32;;;8.80;;
34805;SDS011;65084;42.196;25.326;2023-07-13T10:34:23;13.88;;;9.27;;
34805;SDS011;65084;42.196;25.326;2023-07-13T10:36:51;9.55;;;8.65;;
34805;SDS011;65084;42.196;25.326;2023-07-13T10:39:19;13.38;;;9.00;;
34805;SDS011;65084;42.196;25.326;2023-07-13T10:41:48;9.50;;;8.50;;
34805;SDS011;65084;42.196;25.326;2023-07-13T10:44:18;17.23;;;9.05;;
34805;SDS011;65084;42.196;25.326;2023-07-13T10:46:48;9.10;;;8.20;;
34805;SDS011;65084;42.196;25.326;2023-07-13T10:49:15;14.95;;;7.78;;
34805;SDS011;65084;42.196;25.326;2023-07-13T10:51:43;20.55;;;7.88;;
34805;SDS011;65084;42.196;25.326;2023-07-13T10:54:16;11.15;;;7.60;;
34805;SDS011;65084;42.196;25.326;2023-07-13T10:56:44;12.05;;;7.97;;
34805;SDS011;65084;42.196;25.326;2023-07-13T10:59:17;13.00;;;7.43;;
34805;SDS011;65084;42.196;25.326;2023-07-13T11:01:49;11.75;;;8.38;;
34805;SDS011;65084;42.196;25.326;2023-07-13T11:04:17;13.18;;;7.57;;
34805;SDS011;65084;42.196;25.326;2023-07-13T11:06:46;8.52;;;7.63;;
34805;SDS011;65084;42.196;25.326;2023-07-13T11:09:19;10.35;;;7.05;;
34805;SDS011;65084;42.196;25.326;2023-07-13T11:11:58;22.02;;;8.15;;
34805;SDS011;65084;42.196;25.326;2023-07-13T11:14:27;13.52;;;7.80;;
34805;SDS011;65084;42.196;25.326;2023-07-13T11:16:56;10.50;;;7.68;;
34805;SDS011;65084;42.196;25.326;2023-07-13T11:19:37;8.63;;;7.82;;
34805;SDS011;65084;42.196;25.326;2023-07-13T11:22:15;9.52;;;7.57;;
34805;SDS011;65084;42.196;25.326;2023-07-13T11:24:53;7.75;;;7.00;;
34805;SDS011;65084;42.196;25.326;2023-07-13T11:27:27;10.57;;;7.55;;
34805;SDS011;65084;42.196;25.326;2023-07-13T11:30:09;8.00;;;7.13;;
34805;SDS011;65084;42.196;25.326;2023-07-13T11:32:43;20.35;;;7.78;;
34805;SDS011;65084;42.196;25.326;2023-07-13T11:35:12;13.85;;;7.63;;
34805;SDS011;65084;42.196;25.326;2023-07-13T11:37:40;11.63;;;7.65;;
34805;SDS011;65084;42.196;25.326;2023-07-13T11:40:11;8.27;;;7.20;;
34805;SDS011;65084;42.196;25.326;2023-07-13T11:42:39;10.38;;;6.97;;
34805;SDS011;65084;42.196;25.326;2023-07-13T11:45:14;9.35;;;6.72;;
34805;SDS011;65084;42.196;25.326;2023-07-13T11:47:48;9.75;;;6.90;;
34805;SDS011;65084;42.196;25.326;2023-07-13T11:50:18;9.52;;;6.60;;
34805;SDS011;65084;42.196;25.326;2023-07-13T11:52:46;11.73;;;6.13;;
34805;SDS011;65084;42.196;25.326;2023-07-13T11:55:15;8.02;;;7.13;;
34805;SDS011;65084;42.196;25.326;2023-07-13T11:57:44;7.72;;;6.82;;
34805;SDS011;65084;42.196;25.326;2023-07-13T12:00:13;11.90;;;8.20;;
34805;SDS011;65084;42.196;25.326;2023-07-13T12:02:42;13.10;;;9.15;;
34805;SDS011;65084;42.196;25.326;2023-07-13T12:05:11;12.77;;;8.95;;
34805;SDS011;65084;42.196;25.326;2023-07-13T12:07:39;17.30;;;10.10;;
34805;SDS011;65084;42.196;25.326;2023-07-13T12:10:14;11.98;;;8.40;;
34805;SDS011;65084;42.196;25.326;2023-07-13T12:12:46;13.48;;;7.03;;
34805;SDS011;65084;42.196;25.326;2023-07-13T12:15:14;14.60;;;6.65;;
34805;SDS011;65084;42.196;25.326;2023-07-13T12:17:41;12.10;;;7.03;;
34805;SDS011;65084;42.196;25.326;2023-07-13T12:20:14;12.75;;;7.50;;
34805;SDS011;65084;42.196;25.326;2023-07-13T12:22:45;8.80;;;6.68;;
34805;SDS011;65084;42.196;25.326;2023-07-13T12:25:13;18.08;;;6.95;;
34805;SDS011;65084;42.196;25.326;2023-07-13T12:27:41;10.75;;;7.70;;
34805;SDS011;65084;42.196;25.326;2023-07-13T12:30:21;14.35;;;6.80;;
34805;SDS011;65084;42.196;25.326;2023-07-13T12:32:59;17.58;;;7.93;;
34805;SDS011;65084;42.196;25.326;2023-07-13T12:35:29;24.58;;;8.00;;
34805;SDS011;65084;42.196;25.326;2023-07-13T12:38:00;8.48;;;7.57;;
34805;SDS011;65084;42.196;25.326;2023-07-13T12:40:30;11.02;;;7.85;;
34805;SDS011;65084;42.196;25.326;2023-07-13T12:42:59;16.33;;;8.23;;
34805;SDS011;65084;42.196;25.326;2023-07-13T12:45:29;11.43;;;7.30;;
34805;SDS011;65084;42.196;25.326;2023-07-13T12:47:58;15.48;;;6.95;;
34805;SDS011;65084;42.196;25.326;2023-07-13T12:50:30;11.82;;;6.40;;
34805;SDS011;65084;42.196;25.326;2023-07-13T12:53:02;11.50;;;6.93;;
34805;SDS011;65084;42.196;25.326;2023-07-13T12:55:37;10.70;;;6.63;;
34805;SDS011;65084;42.196;25.326;2023-07-13T12:58:09;15.85;;;7.10;;
34805;SDS011;65084;42.196;25.326;2023-07-13T13:00:40;9.68;;;6.68;;
34805;SDS011;65084;42.196;25.326;2023-07-13T13:03:12;16.40;;;6.15;;
34805;SDS011;65084;42.196;25.326;2023-07-13T13:05:45;10.43;;;6.28;;
34805;SDS011;65084;42.196;25.326;2023-07-13T13:08:12;17.33;;;7.53;;
34805;SDS011;65084;42.196;25.326;2023-07-13T13:10:40;10.82;;;6.80;;
34805;SDS011;65084;42.196;25.326;2023-07-13T13:13:07;8.82;;;5.93;;
34805;SDS011;65084;42.196;25.326;2023-07-13T13:15:34;14.15;;;5.88;;
34805;SDS011;65084;42.196;25.326;2023-07-13T13:18:02;12.40;;;6.15;;
34805;SDS011;65084;42.196;25.326;2023-07-13T13:20:30;14.13;;;6.47;;
34805;SDS011;65084;42.196;25.326;2023-07-13T13:22:59;16.10;;;5.70;;
34805;SDS011;65084;42.196;25.326;2023-07-13T13:25:26;16.52;;;6.30;;
34805;SDS011;65084;42.196;25.326;2023-07-13T13:27:53;10.45;;;5.63;;
34805;SDS011;65084;42.196;25.326;2023-07-13T13:30:21;23.20;;;6.40;;
34805;SDS011;65084;42.196;25.326;2023-07-13T13:32:48;7.03;;;6.03;;
34805;SDS011;65084;42.196;25.326;2023-07-13T13:35:15;15.05;;;6.55;;
34805;SDS011;65084;42.196;25.326;2023-07-13T13:37:43;14.63;;;6.88;;
34805;SDS011;65084;42.196;25.326;2023-07-13T13:40:15;12.32;;;5.90;;
34805;SDS011;65084;42.196;25.326;2023-07-13T13:42:43;9.88;;;6.07;;
34805;SDS011;65084;42.196;25.326;2023-07-13T13:45:11;9.90;;;5.88;;
34805;SDS011;65084;42.196;25.326;2023-07-13T13:47:38;10.45;;;6.40;;
34805;SDS011;65084;42.196;25.326;2023-07-13T13:50:11;11.93;;;6.65;;
34805;SDS011;65084;42.196;25.326;2023-07-13T13:52:39;11.77;;;5.90;;
34805;SDS011;65084;42.196;25.326;2023-07-13T13:55:11;10.40;;;6.10;;
34805;SDS011;65084;42.196;25.326;2023-07-13T13:57:40;11.90;;;6.10;;
34805;SDS011;65084;42.196;25.326;2023-07-13T14:00:08;11.95;;;5.65;;
34805;SDS011;65084;42.196;25.326;2023-07-13T14:02:39;15.52;;;6.35;;
34805;SDS011;65084;42.196;25.326;2023-07-13T14:05:09;11.27;;;6.13;;
34805;SDS011;65084;42.196;25.326;2023-07-13T14:07:39;12.25;;;6.00;;
34805;SDS011;65084;42.196;25.326;2023-07-13T14:10:10;19.05;;;6.97;;
34805;SDS011;65084;42.196;25.326;2023-07-13T14:12:39;14.63;;;5.72;;
34805;SDS011;65084;42.196;25.326;2023-07-13T14:15:08;18.85;;;6.78;;
34805;SDS011;65084;42.196;25.326;2023-07-13T14:17:36;16.15;;;6.75;;
34805;SDS011;65084;42.196;25.326;2023-07-13T14:20:05;15.30;;;6.07;;
34805;SDS011;65084;42.196;25.326;2023-07-13T14:22:36;17.15;;;6.25;;
34805;SDS011;65084;42.196;25.326;2023-07-13T14:25:03;14.48;;;6.32;;
34805;SDS011;65084;42.196;25.326;2023-07-13T14:27:31;14.05;;;6.50;;
34805;SDS011;65084;42.196;25.326;2023-07-13T14:30:00;8.60;;;5.57;;
34805;SDS011;65084;42.196;25.326;2023-07-13T14:32:28;18.00;;;6.05;;
34805;SDS011;65084;42.196;25.326;2023-07-13T14:34:55;11.98;;;5.50;;